Ocean Outback — 9V8072 — position and weather

sailwx.info

Track history (hours):
 
Tides and Currents Weather Stations Pressure Air Temp Water Temp Dewpoint Dewpoint Depression Visibility Wind Speed Wind Dir Waves Ship Positions

Ocean Outback

Last reported at 2016-Jul-23 15:12 UTC. Time now 2016-Jul-27 15:26 UTC.
Position N 01°15' E 104°08'.

Length 136 m; draft 7.8 m.

Type: Ship. MMSI: 563745000.

Date/timePositionNaut miles runAvg speedWind from/ knotsBaromVisibWave heightAir tempDewpointWater temp
2016-Jul-23 15:12N 01°15' E 104°08'914.1
2016-Jul-23 14:33N 01°14' E 103°59'6 6.2
2016-Jul-23 13:31N 01°15' E 103°53'0 0.0
2016-Jul-23 12:31N 01°15' E 103°53'0 0.0
2016-Jul-23 11:31N 01°15' E 103°53'0 0.1
2016-Jul-23 10:31N 01°15' E 103°53'0 0.0
2016-Jul-23 09:31N 01°15' E 103°53'0 0.1
2016-Jul-23 08:31N 01°15' E 103°53'0 0.0
2016-Jul-23 07:25N 01°15' E 103°53'0 0.0
2016-Jul-23 06:31N 01°15' E 103°53'0 0.0
2016-Jul-23 04:31N 01°15' E 103°53'0 0.0
2016-Jul-23 03:31N 01°15' E 103°53'0 0.0
2016-Jul-23 02:31N 01°15' E 103°53'0 0.1
2016-Jul-23 01:31N 01°15' E 103°53'0 0.0
2016-Jul-23 00:31N 01°15' E 103°53'0 0.0
2016-Jul-22 23:31N 01°15' E 103°53'0 0.0
2016-Jul-22 22:25N 01°15' E 103°53'0 0.0
2016-Jul-22 21:31N 01°15' E 103°53'0 0.0
2016-Jul-22 20:19N 01°15' E 103°53'0 0.1
2016-Jul-22 19:13N 01°15' E 103°53'0 0.1
2016-Jul-22 18:31N 01°15' E 103°53'0 0.0
2016-Jul-22 17:31N 01°15' E 103°53'0 0.0
2016-Jul-22 16:31N 01°15' E 103°53'0 0.0
2016-Jul-22 15:31N 01°15' E 103°53'0 0.0
2016-Jul-22 14:31N 01°15' E 103°53'0 0.0
2016-Jul-22 13:31N 01°15' E 103°53'0 0.0
2016-Jul-22 12:31N 01°15' E 103°53'0 0.0
2016-Jul-22 11:31N 01°15' E 103°53'0 0.0
2016-Jul-22 10:25N 01°15' E 103°53'0 0.0
2016-Jul-22 09:28N 01°15' E 103°53'0 0.0
2016-Jul-22 08:19N 01°15' E 103°53'0 0.0
2016-Jul-22 07:31N 01°15' E 103°53'0 0.0
2016-Jul-22 04:31N 01°15' E 103°53'0 0.0
2016-Jul-22 03:31N 01°15' E 103°53'0 0.0
2016-Jul-22 02:31N 01°15' E 103°53'0 0.0
2016-Jul-22 01:31N 01°15' E 103°53'0 0.0
2016-Jul-22 00:31N 01°15' E 103°53'0 0.0
2016-Jul-21 23:31N 01°15' E 103°53'0 0.0
2016-Jul-21 22:31N 01°15' E 103°53'0 0.0
2016-Jul-21 21:31N 01°15' E 103°53'0 0.0
2016-Jul-21 20:31N 01°15' E 103°53'0 0.1
2016-Jul-21 19:31N 01°15' E 103°53'0 0.0
2016-Jul-21 18:31N 01°15' E 103°53'0 0.0
2016-Jul-21 17:31N 01°15' E 103°53'0 0.1
2016-Jul-21 16:19N 01°15' E 103°53'0 0.0
2016-Jul-21 15:31N 01°15' E 103°53'0 0.0
2016-Jul-21 14:31N 01°15' E 103°53'0 0.0
2016-Jul-21 13:31N 01°15' E 103°53'0 0.0
2016-Jul-21 12:31N 01°15' E 103°53'0 0.0
2016-Jul-21 11:19N 01°15' E 103°53'0 0.0
2016-Jul-21 10:31N 01°15' E 103°53'0 0.0
2016-Jul-21 09:31N 01°15' E 103°53'0 0.1
2016-Jul-21 08:28N 01°15' E 103°53'0 0.0
2016-Jul-21 07:31N 01°15' E 103°53'0 0.0
2016-Jul-21 06:31N 01°15' E 103°53'0 0.1
2016-Jul-21 05:31N 01°15' E 103°53'0 0.0
2016-Jul-21 04:19N 01°15' E 103°53'0 0.0
2016-Jul-21 03:31N 01°15' E 103°53'0 0.0
2016-Jul-21 02:31N 01°15' E 103°53'0 0.0
2016-Jul-21 01:31N 01°15' E 103°53'0 0.0
2016-Jul-21 00:31N 01°15' E 103°53'0 0.0
2016-Jul-20 23:25N 01°15' E 103°53'0 0.1
2016-Jul-20 22:31N 01°15' E 103°53'0 0.0
2016-Jul-20 21:31N 01°15' E 103°53'0 0.0
2016-Jul-20 20:31N 01°15' E 103°53'0 0.0
2016-Jul-20 19:31N 01°15' E 103°53'0 0.0
2016-Jul-20 18:31N 01°15' E 103°53'0 0.1
2016-Jul-20 17:31N 01°15' E 103°53'0 0.0
2016-Jul-20 16:31N 01°15' E 103°53'4 3.6
2016-Jul-20 15:19N 01°13' E 103°49'0 0.0
2016-Jul-20 14:31N 01°13' E 103°49'0 0.1
2016-Jul-20 13:31N 01°13' E 103°49'0 0.0
2016-Jul-20 12:25N 01°13' E 103°49'4 4.7
2016-Jul-20 11:33N 01°13' E 103°53'5 4.7
2016-Jul-20 10:33N 01°11' E 103°57'0 0.0
2016-Jul-20 09:32N 01°11' E 103°57'0 0.0
2016-Jul-20 08:33N 01°11' E 103°57'0 0.0
2016-Jul-20 07:33N 01°11' E 103°57'4 4.0
2016-Jul-20 06:34N 01°12' E 103°53'9014.3
2016-Jul-20 00:19N 01°47' E 102°31'1417.2
2016-Jul-19 23:31N 01°52' E 102°18'  
Track history (hours):
 
Tides and Currents Weather Stations Pressure Air Temp Water Temp Dewpoint Dewpoint Depression Visibility Wind Speed Wind Dir Waves Ship Positions

Ocean Outback

Last reported at 2016-Jul-23 15:12 UTC. Time now 2016-Jul-27 15:26 UTC.
Position N 01°15' E 104°08'.

Length 136 m; draft 7.8 m.

Type: Ship. MMSI: 563745000.

Date/timePositionNaut miles runAvg speedWind from/ knotsBaromVisibWave heightAir tempDewpointWater temp
2016-Jul-23 15:12N 01°15' E 104°08'914.1
2016-Jul-23 14:33N 01°14' E 103°59'6 6.2
2016-Jul-23 13:31N 01°15' E 103°53'0 0.0
2016-Jul-23 12:31N 01°15' E 103°53'0 0.0
2016-Jul-23 11:31N 01°15' E 103°53'0 0.1
2016-Jul-23 10:31N 01°15' E 103°53'0 0.0
2016-Jul-23 09:31N 01°15' E 103°53'0 0.1
2016-Jul-23 08:31N 01°15' E 103°53'0 0.0
2016-Jul-23 07:25N 01°15' E 103°53'0 0.0
2016-Jul-23 06:31N 01°15' E 103°53'0 0.0
2016-Jul-23 04:31N 01°15' E 103°53'0 0.0
2016-Jul-23 03:31N 01°15' E 103°53'0 0.0
2016-Jul-23 02:31N 01°15' E 103°53'0 0.1
2016-Jul-23 01:31N 01°15' E 103°53'0 0.0
2016-Jul-23 00:31N 01°15' E 103°53'0 0.0
2016-Jul-22 23:31N 01°15' E 103°53'0 0.0
2016-Jul-22 22:25N 01°15' E 103°53'0 0.0
2016-Jul-22 21:31N 01°15' E 103°53'0 0.0
2016-Jul-22 20:19N 01°15' E 103°53'0 0.1
2016-Jul-22 19:13N 01°15' E 103°53'0 0.1
2016-Jul-22 18:31N 01°15' E 103°53'0 0.0
2016-Jul-22 17:31N 01°15' E 103°53'0 0.0
2016-Jul-22 16:31N 01°15' E 103°53'0 0.0
2016-Jul-22 15:31N 01°15' E 103°53'0 0.0
2016-Jul-22 14:31N 01°15' E 103°53'0 0.0
2016-Jul-22 13:31N 01°15' E 103°53'0 0.0
2016-Jul-22 12:31N 01°15' E 103°53'0 0.0
2016-Jul-22 11:31N 01°15' E 103°53'0 0.0
2016-Jul-22 10:25N 01°15' E 103°53'0 0.0
2016-Jul-22 09:28N 01°15' E 103°53'0 0.0
2016-Jul-22 08:19N 01°15' E 103°53'0 0.0
2016-Jul-22 07:31N 01°15' E 103°53'0 0.0
2016-Jul-22 04:31N 01°15' E 103°53'0 0.0
2016-Jul-22 03:31N 01°15' E 103°53'0 0.0
2016-Jul-22 02:31N 01°15' E 103°53'0 0.0
2016-Jul-22 01:31N 01°15' E 103°53'0 0.0
2016-Jul-22 00:31N 01°15' E 103°53'0 0.0
2016-Jul-21 23:31N 01°15' E 103°53'0 0.0
2016-Jul-21 22:31N 01°15' E 103°53'0 0.0
2016-Jul-21 21:31N 01°15' E 103°53'0 0.0
2016-Jul-21 20:31N 01°15' E 103°53'0 0.1
2016-Jul-21 19:31N 01°15' E 103°53'0 0.0
2016-Jul-21 18:31N 01°15' E 103°53'0 0.0
2016-Jul-21 17:31N 01°15' E 103°53'0 0.1
2016-Jul-21 16:19N 01°15' E 103°53'0 0.0
2016-Jul-21 15:31N 01°15' E 103°53'0 0.0
2016-Jul-21 14:31N 01°15' E 103°53'0 0.0
2016-Jul-21 13:31N 01°15' E 103°53'0 0.0
2016-Jul-21 12:31N 01°15' E 103°53'0 0.0
2016-Jul-21 11:19N 01°15' E 103°53'0 0.0
2016-Jul-21 10:31N 01°15' E 103°53'0 0.0
2016-Jul-21 09:31N 01°15' E 103°53'0 0.1
2016-Jul-21 08:28N 01°15' E 103°53'0 0.0
2016-Jul-21 07:31N 01°15' E 103°53'0 0.0
2016-Jul-21 06:31N 01°15' E 103°53'0 0.1
2016-Jul-21 05:31N 01°15' E 103°53'0 0.0
2016-Jul-21 04:19N 01°15' E 103°53'0 0.0
2016-Jul-21 03:31N 01°15' E 103°53'0 0.0
2016-Jul-21 02:31N 01°15' E 103°53'0 0.0
2016-Jul-21 01:31N 01°15' E 103°53'0 0.0
2016-Jul-21 00:31N 01°15' E 103°53'0 0.0
2016-Jul-20 23:25N 01°15' E 103°53'0 0.1
2016-Jul-20 22:31N 01°15' E 103°53'0 0.0
2016-Jul-20 21:31N 01°15' E 103°53'0 0.0
2016-Jul-20 20:31N 01°15' E 103°53'0 0.0
2016-Jul-20 19:31N 01°15' E 103°53'0 0.0
2016-Jul-20 18:31N 01°15' E 103°53'0 0.1
2016-Jul-20 17:31N 01°15' E 103°53'0 0.0
2016-Jul-20 16:31N 01°15' E 103°53'4 3.6
2016-Jul-20 15:19N 01°13' E 103°49'0 0.0
2016-Jul-20 14:31N 01°13' E 103°49'0 0.1
2016-Jul-20 13:31N 01°13' E 103°49'0 0.0
2016-Jul-20 12:25N 01°13' E 103°49'4 4.7
2016-Jul-20 11:33N 01°13' E 103°53'5 4.7
2016-Jul-20 10:33N 01°11' E 103°57'0 0.0
2016-Jul-20 09:32N 01°11' E 103°57'0 0.0
2016-Jul-20 08:33N 01°11' E 103°57'0 0.0
2016-Jul-20 07:33N 01°11' E 103°57'4 4.0
2016-Jul-20 06:34N 01°12' E 103°53'9014.3
2016-Jul-20 00:19N 01°47' E 102°31'1417.2
2016-Jul-19 23:31N 01°52' E 102°18'  

Dump ship's entire track history